CheckWX is a tool to help pilots better visualize weather data.  It is not intended as a substitute for an official pre-flight weather briefing.

12:03:33 UTC

KMPZ METAR
Mount Pleasant Municipal Airport
Mount Pleasant, Iowa, USA
Current

1 hour ago

KMPZ 041055Z AUTO 01004KT 7SM BKN055 OVC070 21/21 A3004 RMK AO2
Observed
Jul-4 @ 10:55 UTC
Wind
  • 010° at 4 KTS
Visibility
7 SM
Flight Rules
VFR
Cloud Levels
  • Broken at 5,500' AGL
  • Overcast at 7,000' AGL
Temperature
21°C / 70°F
Dewpoint
21°C / 70°F
Humidity
100%
Altimeter
30.04" Hg
Pressure
1017.32 hPa
Previous

2 hours ago

KMPZ 041015Z AUTO 02004KT 7SM SCT055 21/21 A3003 RMK AO2
Observed
Jul-4 @ 10:15 UTC
Wind
  • 020° at 4 KTS
Visibility
7 SM
Flight Rules
VFR
Cloud Levels
  • Scattered at 5,500' AGL
Temperature
21°C / 70°F
Dewpoint
21°C / 70°F
Humidity
100%
Altimeter
30.03" Hg
Pressure
1016.92 hPa
Previous

2 hours ago

KMPZ 040935Z AUTO 02005KT 10SM CLR 21/20 A3003 RMK AO2
Observed
Jul-4 @ 09:35 UTC
Wind
  • 020° at 5 KTS
Visibility
10 SM
Flight Rules
VFR
Cloud Levels
  • Clear skies
Temperature
21°C / 70°F
Dewpoint
20°C / 68°F
Humidity
94%
Altimeter
30.03" Hg
Pressure
1016.92 hPa